createdAt,value
2022-08-20T00:04:52.482Z,25.59
2022-08-20T00:09:55.946Z,25.48
2022-08-20T00:14:59.496Z,25.50
2022-08-20T00:20:05.254Z,25.51
2022-08-20T00:25:09.906Z,25.45
2022-08-20T00:30:14.823Z,25.33
2022-08-20T00:35:23.649Z,25.35
2022-08-20T00:40:36.980Z,25.36
2022-08-20T00:45:40.493Z,25.23
2022-08-20T00:50:45.510Z,25.25
2022-08-20T00:55:48.990Z,25.25
2022-08-20T01:00:52.907Z,25.25
2022-08-20T01:06:11.637Z,25.34
2022-08-20T01:11:16.745Z,25.42
2022-08-20T01:16:23.207Z,25.42
2022-08-20T01:21:31.283Z,25.37
2022-08-20T01:26:38.941Z,25.44
2022-08-20T01:31:43.207Z,25.47
2022-08-20T01:36:49.068Z,25.51
2022-08-20T01:42:03.348Z,25.31
2022-08-20T01:47:15.184Z,25.38
2022-08-20T01:52:25.912Z,25.44
2022-08-20T01:57:30.871Z,25.38
2022-08-20T02:02:34.311Z,25.26
2022-08-20T02:07:38.498Z,25.31
2022-08-20T02:12:43.328Z,25.39
2022-08-20T02:17:47.083Z,25.41
2022-08-20T02:22:52.979Z,25.41
2022-08-20T02:28:02.447Z,25.43
2022-08-20T02:33:08.040Z,25.48
2022-08-20T02:38:12.220Z,25.39
2022-08-20T02:43:18.294Z,25.59
2022-08-20T02:48:23.040Z,25.46
2022-08-20T02:53:27.158Z,25.57
2022-08-20T02:58:32.044Z,25.53
2022-08-20T03:03:35.846Z,25.53
2022-08-20T03:08:40.051Z,25.65
2022-08-20T03:13:45.268Z,25.77
2022-08-20T03:18:52.076Z,25.74
2022-08-20T03:23:55.850Z,25.67
2022-08-20T03:29:00.671Z,25.67
2022-08-20T03:34:04.250Z,25.69
2022-08-20T03:39:13.077Z,25.76
2022-08-20T03:44:18.458Z,25.73
2022-08-20T03:49:23.932Z,25.67
2022-08-20T03:54:31.797Z,25.63
2022-08-20T03:59:36.835Z,25.51
2022-08-20T04:04:40.855Z,25.76
2022-08-20T04:09:44.871Z,25.84
2022-08-20T04:14:49.806Z,24.92
2022-08-20T04:19:53.566Z,25.77
2022-08-20T04:24:57.056Z,25.80
2022-08-20T04:30:03.112Z,25.72
2022-08-20T04:35:08.092Z,25.63
2022-08-20T04:40:36.418Z,26.02
2022-08-20T04:45:41.494Z,25.74
2022-08-20T04:50:47.564Z,25.43
2022-08-20T04:55:52.011Z,24.95
2022-08-20T05:01:01.211Z,25.57
2022-08-20T05:06:06.049Z,25.94
2022-08-20T05:11:36.085Z,25.62
2022-08-20T05:16:38.696Z,25.37
2022-08-20T05:21:42.641Z,25.90
2022-08-20T05:26:46.564Z,26.03
2022-08-20T05:31:51.449Z,26.00
2022-08-20T05:36:55.328Z,25.99
2022-08-20T05:41:59.180Z,25.93
2022-08-20T05:47:04.497Z,26.21
2022-08-20T05:52:07.928Z,26.38
2022-08-20T05:57:11.474Z,26.43
2022-08-20T06:02:34.086Z,26.13
2022-08-20T06:07:38.562Z,25.99
2022-08-20T06:12:44.381Z,26.33
2022-08-20T06:17:53.650Z,26.86
2022-08-20T06:23:16.827Z,27.09
2022-08-20T06:28:20.642Z,26.01
2022-08-20T06:33:26.039Z,26.76
2022-08-20T06:38:29.528Z,26.71
2022-08-20T06:43:33.933Z,26.59
2022-08-20T06:48:38.958Z,26.53
2022-08-20T06:53:42.456Z,25.57
2022-08-20T06:58:45.924Z,25.38
2022-08-20T07:03:54.739Z,27.37
2022-08-20T07:08:59.406Z,26.01
2022-08-20T07:14:05.379Z,27.55
2022-08-20T07:19:10.295Z,28.42
2022-08-20T07:24:13.752Z,28.11
2022-08-20T07:29:17.212Z,28.37
2022-08-20T07:34:26.701Z,27.38
2022-08-20T07:39:30.546Z,28.60
2022-08-20T07:44:38.420Z,28.96
2022-08-20T07:49:43.320Z,28.74
2022-08-20T07:54:46.990Z,29.31
2022-08-20T07:59:50.420Z,29.28
2022-08-20T08:04:56.731Z,29.98
2022-08-20T08:10:01.336Z,28.50
2022-08-20T08:15:05.693Z,29.75
2022-08-20T08:20:12.333Z,29.19
2022-08-20T08:25:17.181Z,28.45
2022-08-20T08:30:20.829Z,29.72
2022-08-20T08:35:25.759Z,28.14
2022-08-20T08:40:30.955Z,28.48
2022-08-20T08:45:43.787Z,27.49
2022-08-20T08:50:53.499Z,28.24
2022-08-20T08:55:59.834Z,27.70
2022-08-20T09:01:08.159Z,28.25
2022-08-20T09:06:20.425Z,28.60
2022-08-20T09:11:25.269Z,28.35
2022-08-20T09:16:37.392Z,27.66
2022-08-20T09:21:53.797Z,28.52
2022-08-20T09:26:57.265Z,28.81
2022-08-20T09:32:08.253Z,28.35
2022-08-20T09:37:14.867Z,28.14
2022-08-20T09:42:20.338Z,28.44
2022-08-20T09:47:23.933Z,29.54
2022-08-20T09:52:32.199Z,28.62
2022-08-20T09:57:35.994Z,29.58
2022-08-20T10:02:39.898Z,29.65
2022-08-20T10:07:44.728Z,28.55
2022-08-20T10:12:50.578Z,29.14
2022-08-20T10:17:58.295Z,30.24
2022-08-20T10:23:03.867Z,30.47
2022-08-20T10:28:07.623Z,30.09
2022-08-20T10:33:11.078Z,30.71
2022-08-20T10:38:15.866Z,30.97
2022-08-20T10:43:19.299Z,29.90
2022-08-20T10:48:23.201Z,30.59
2022-08-20T10:53:28.104Z,30.04
2022-08-20T10:58:39.653Z,30.08
2022-08-20T11:03:44.784Z,28.14
2022-08-20T11:08:49.678Z,28.78
2022-08-20T11:13:53.147Z,27.13
2022-08-20T11:18:56.587Z,27.75
2022-08-20T11:24:03.057Z,27.40
2022-08-20T11:29:06.765Z,27.77
2022-08-20T11:34:12.734Z,27.60
2022-08-20T11:39:17.811Z,28.01
2022-08-20T11:44:21.818Z,27.91
2022-08-20T11:49:25.276Z,27.88
2022-08-20T11:54:31.691Z,27.61
2022-08-20T11:59:35.255Z,27.36
2022-08-20T12:04:38.692Z,28.55
2022-08-20T12:09:50.708Z,28.23
2022-08-20T12:14:55.701Z,28.98
2022-08-20T12:20:00.857Z,28.79
2022-08-20T12:25:07.213Z,29.28
2022-08-20T12:30:13.353Z,30.09
2022-08-20T12:35:18.295Z,30.87
2022-08-20T12:40:31.774Z,31.14
2022-08-20T12:45:37.555Z,31.55
2022-08-20T12:50:42.710Z,30.49
2022-08-20T12:55:47.570Z,31.37
2022-08-20T13:00:51.470Z,31.93
2022-08-20T13:05:55.059Z,32.31
2022-08-20T13:10:59.880Z,32.57
2022-08-20T13:16:03.511Z,31.99
2022-08-20T13:21:07.196Z,31.65
2022-08-20T13:26:12.045Z,32.67
2022-08-20T13:31:15.515Z,31.63
2022-08-20T13:36:18.964Z,31.73
2022-08-20T13:41:23.891Z,32.29
2022-08-20T13:46:27.353Z,30.84
2022-08-20T13:51:31.094Z,31.49
2022-08-20T13:56:35.893Z,32.12
2022-08-20T14:01:39.397Z,32.45
2022-08-20T14:06:42.831Z,33.02
2022-08-20T14:11:47.633Z,32.58
2022-08-20T14:16:51.122Z,32.53
2022-08-20T14:21:54.585Z,31.94
2022-08-20T14:27:01.046Z,32.94
2022-08-20T14:32:05.574Z,32.49
2022-08-20T14:37:18.226Z,32.25
2022-08-20T14:42:23.870Z,31.97
2022-08-20T14:47:29.672Z,32.30
2022-08-20T14:52:36.420Z,32.48
2022-08-20T14:57:41.671Z,32.31
2022-08-20T15:02:45.943Z,32.73
2022-08-20T15:07:51.738Z,33.02
2022-08-20T15:12:57.150Z,33.25
2022-08-20T15:18:01.295Z,32.09
2022-08-20T15:23:05.743Z,32.12
2022-08-20T15:28:11.074Z,32.14
2022-08-20T15:33:14.624Z,32.08
2022-08-20T15:38:18.147Z,32.15
2022-08-20T15:43:22.982Z,32.13
2022-08-20T15:48:35.038Z,32.00
2022-08-20T15:53:44.515Z,31.95
2022-08-20T15:58:54.948Z,31.65
2022-08-20T16:04:15.846Z,31.49
2022-08-20T16:09:34.761Z,31.86
2022-08-20T16:14:42.607Z,32.05
2022-08-20T16:19:52.820Z,32.82
2022-08-20T16:24:56.900Z,32.72
2022-08-20T16:30:05.853Z,32.93
2022-08-20T16:35:29.910Z,32.85
2022-08-20T16:40:35.936Z,32.31
2022-08-20T16:45:50.824Z,31.85
2022-08-20T16:50:58.916Z,31.60
2022-08-20T16:56:02.524Z,31.67
2022-08-20T17:01:10.519Z,31.73
2022-08-20T17:06:21.300Z,31.82
2022-08-20T17:11:28.987Z,31.75
2022-08-20T17:16:36.533Z,31.27
2022-08-20T17:21:40.768Z,31.38
2022-08-20T17:26:47.004Z,31.30
2022-08-20T17:31:53.805Z,30.14
2022-08-20T17:36:59.002Z,30.04
2022-08-20T17:42:06.327Z,29.58
2022-08-20T17:47:15.979Z,30.02
2022-08-20T17:52:28.306Z,30.42
2022-08-20T17:57:37.901Z,30.37
2022-08-20T18:02:43.177Z,30.42
2022-08-20T18:07:59.697Z,29.77
2022-08-20T18:13:07.299Z,29.67
2022-08-20T18:18:26.937Z,29.25
2022-08-20T18:23:34.375Z,29.16
2022-08-20T18:28:39.940Z,29.39
2022-08-20T18:33:45.507Z,29.18
2022-08-20T18:39:00.548Z,29.21
2022-08-20T18:44:09.842Z,28.99
2022-08-20T18:49:14.895Z,28.03
2022-08-20T18:54:24.813Z,28.40
2022-08-20T18:59:28.449Z,29.01
2022-08-20T19:04:33.830Z,28.81
2022-08-20T19:10:04.974Z,28.78
2022-08-20T19:15:09.640Z,28.97
2022-08-20T19:20:18.984Z,29.04
2022-08-20T19:25:29.331Z,29.03
2022-08-20T19:30:35.899Z,28.99
2022-08-20T19:35:41.223Z,29.01
2022-08-20T19:40:46.195Z,28.10
2022-08-20T19:45:52.392Z,28.35
2022-08-20T19:51:03.308Z,28.04
2022-08-20T19:56:11.244Z,28.40
2022-08-20T20:01:19.205Z,28.56
2022-08-20T20:06:25.522Z,28.66
2022-08-20T20:11:32.992Z,28.42
2022-08-20T20:16:38.762Z,27.48
2022-08-20T20:21:45.300Z,27.92
2022-08-20T20:26:49.432Z,26.89
2022-08-20T20:31:54.794Z,27.41
2022-08-20T20:37:06.660Z,27.54
2022-08-20T20:42:11.623Z,27.90
2022-08-20T20:47:19.496Z,27.72
2022-08-20T20:52:28.369Z,27.61
2022-08-20T20:57:37.866Z,27.68
2022-08-20T21:02:42.690Z,27.15
2022-08-20T21:07:50.216Z,27.26
2022-08-20T21:12:54.548Z,26.97
2022-08-20T21:18:00.680Z,27.04
2022-08-20T21:23:05.671Z,26.32
2022-08-20T21:28:09.479Z,26.72
2022-08-20T21:33:12.882Z,26.74
2022-08-20T21:38:17.746Z,26.43
2022-08-20T21:43:21.270Z,26.38
2022-08-20T21:48:27.354Z,26.29
2022-08-20T21:53:32.210Z,26.06
2022-08-20T21:58:36.671Z,25.95
2022-08-20T22:03:41.146Z,25.77
2022-08-20T22:08:46.102Z,25.51
2022-08-20T22:13:49.544Z,25.40
2022-08-20T22:18:53.795Z,25.37
2022-08-20T22:24:00.735Z,25.25
2022-08-20T22:29:05.424Z,25.05
2022-08-20T22:34:09.640Z,24.85
2022-08-20T22:39:14.725Z,24.78
2022-08-20T22:44:18.374Z,24.59
2022-08-20T22:49:23.577Z,24.50
2022-08-20T22:54:28.857Z,24.35
2022-08-20T22:59:32.438Z,24.23
2022-08-20T23:04:37.614Z,24.15
2022-08-20T23:09:43.427Z,24.09
2022-08-20T23:14:47.127Z,23.88
2022-08-20T23:19:51.181Z,23.75
2022-08-20T23:25:00.321Z,23.66
2022-08-20T23:30:04.785Z,23.53
2022-08-20T23:35:09.783Z,23.34
2022-08-20T23:40:16.609Z,23.22
2022-08-20T23:45:21.759Z,23.13
2022-08-20T23:50:28.727Z,23.06
2022-08-20T23:55:33.880Z,22.99
